sensor_id;sensor_type;location;lat;lon;timestamp;temperature;humidity
60701;DHT22;46541;49.894;10.886;2023-01-01T00:02:06;12.00;99.90
60701;DHT22;46541;49.894;10.886;2023-01-01T00:04:33;12.00;99.90
60701;DHT22;46541;49.894;10.886;2023-01-01T00:07:02;12.00;99.90
60701;DHT22;46541;49.894;10.886;2023-01-01T00:09:29;12.00;99.90
60701;DHT22;46541;49.894;10.886;2023-01-01T00:12:14;12.00;99.90
60701;DHT22;46541;49.894;10.886;2023-01-01T00:14:41;12.00;99.90
60701;DHT22;46541;49.894;10.886;2023-01-01T00:17:10;12.00;99.90
60701;DHT22;46541;49.894;10.886;2023-01-01T00:19:36;12.00;99.90
60701;DHT22;46541;49.894;10.886;2023-01-01T00:22:04;12.00;99.90
60701;DHT22;46541;49.894;10.886;2023-01-01T00:24:50;12.00;99.90
60701;DHT22;46541;49.894;10.886;2023-01-01T00:27:17;12.00;99.90
60701;DHT22;46541;49.894;10.886;2023-01-01T00:29:44;12.00;99.90
60701;DHT22;46541;49.894;10.886;2023-01-01T00:32:11;12.00;99.90
60701;DHT22;46541;49.894;10.886;2023-01-01T00:34:44;12.00;99.90
60701;DHT22;46541;49.894;10.886;2023-01-01T00:37:11;12.00;99.90
60701;DHT22;46541;49.894;10.886;2023-01-01T00:39:38;12.00;99.90
60701;DHT22;46541;49.894;10.886;2023-01-01T00:42:05;12.00;99.90
60701;DHT22;46541;49.894;10.886;2023-01-01T00:44:31;12.00;99.90
60701;DHT22;46541;49.894;10.886;2023-01-01T00:46:58;11.90;99.90
60701;DHT22;46541;49.894;10.886;2023-01-01T00:49:25;11.90;99.90
60701;DHT22;46541;49.894;10.886;2023-01-01T00:51:52;12.00;99.90
60701;DHT22;46541;49.894;10.886;2023-01-01T00:54:19;11.90;99.90
60701;DHT22;46541;49.894;10.886;2023-01-01T00:56:45;11.90;99.90
60701;DHT22;46541;49.894;10.886;2023-01-01T00:59:12;11.90;99.90
60701;DHT22;46541;49.894;10.886;2023-01-01T01:01:39;11.90;99.90
60701;DHT22;46541;49.894;10.886;2023-01-01T01:04:06;11.90;99.90
60701;DHT22;46541;49.894;10.886;2023-01-01T01:06:35;11.90;99.90
60701;DHT22;46541;49.894;10.886;2023-01-01T01:09:02;11.90;99.90
60701;DHT22;46541;49.894;10.886;2023-01-01T01:11:29;11.90;99.90
60701;DHT22;46541;49.894;10.886;2023-01-01T01:13:56;11.90;99.90
60701;DHT22;46541;49.894;10.886;2023-01-01T01:16:26;11.90;99.90
60701;DHT22;46541;49.894;10.886;2023-01-01T01:18:55;11.90;99.90
60701;DHT22;46541;49.894;10.886;2023-01-01T01:21:23;12.00;99.90
60701;DHT22;46541;49.894;10.886;2023-01-01T01:23:51;12.00;99.90
60701;DHT22;46541;49.894;10.886;2023-01-01T01:26:24;11.90;99.90
60701;DHT22;46541;49.894;10.886;2023-01-01T01:28:52;12.00;99.90
60701;DHT22;46541;49.894;10.886;2023-01-01T01:31:20;11.90;99.90
60701;DHT22;46541;49.894;10.886;2023-01-01T01:33:48;11.90;99.90
60701;DHT22;46541;49.894;10.886;2023-01-01T01:36:16;11.90;99.90
60701;DHT22;46541;49.894;10.886;2023-01-01T01:38:43;11.90;99.90
60701;DHT22;46541;49.894;10.886;2023-01-01T01:41:15;11.90;99.90
60701;DHT22;46541;49.894;10.886;2023-01-01T01:43:55;11.90;99.90
60701;DHT22;46541;49.894;10.886;2023-01-01T01:49:02;11.90;99.90
60701;DHT22;46541;49.894;10.886;2023-01-01T01:51:33;11.90;99.90
60701;DHT22;46541;49.894;10.886;2023-01-01T01:54:04;11.80;99.90
60701;DHT22;46541;49.894;10.886;2023-01-01T01:59:05;11.90;99.90
60701;DHT22;46541;49.894;10.886;2023-01-01T02:01:32;11.90;99.90
60701;DHT22;46541;49.894;10.886;2023-01-01T02:04:00;11.90;99.90
60701;DHT22;46541;49.894;10.886;2023-01-01T02:06:30;11.90;99.90
60701;DHT22;46541;49.894;10.886;2023-01-01T02:09:00;11.90;99.90
60701;DHT22;46541;49.894;10.886;2023-01-01T02:11:28;11.90;99.90
60701;DHT22;46541;49.894;10.886;2023-01-01T02:13:55;11.90;99.90
60701;DHT22;46541;49.894;10.886;2023-01-01T02:30:06;11.80;99.90
60701;DHT22;46541;49.894;10.886;2023-01-01T02:32:58;11.80;99.90
60701;DHT22;46541;49.894;10.886;2023-01-01T02:35:45;11.80;99.90
60701;DHT22;46541;49.894;10.886;2023-01-01T02:41:01;11.70;99.90
60701;DHT22;46541;49.894;10.886;2023-01-01T02:43:28;11.70;99.90
60701;DHT22;46541;49.894;10.886;2023-01-01T02:45:55;11.70;99.90
60701;DHT22;46541;49.894;10.886;2023-01-01T02:48:43;11.70;99.90
60701;DHT22;46541;49.894;10.886;2023-01-01T02:59:30;11.60;99.90
60701;DHT22;46541;49.894;10.886;2023-01-01T03:02:24;11.60;99.90
60701;DHT22;46541;49.894;10.886;2023-01-01T03:10:57;11.50;99.90
60701;DHT22;46541;49.894;10.886;2023-01-01T03:16:23;11.40;99.90
60701;DHT22;46541;49.894;10.886;2023-01-01T03:19:19;11.40;99.90
60701;DHT22;46541;49.894;10.886;2023-01-01T03:21:49;11.30;99.90
60701;DHT22;46541;49.894;10.886;2023-01-01T03:24:28;11.30;99.90
60701;DHT22;46541;49.894;10.886;2023-01-01T03:27:02;11.30;99.90
60701;DHT22;46541;49.894;10.886;2023-01-01T03:29:33;11.20;99.90
60701;DHT22;46541;49.894;10.886;2023-01-01T03:32:03;11.20;99.90
60701;DHT22;46541;49.894;10.886;2023-01-01T03:34:37;11.10;99.90
60701;DHT22;46541;49.894;10.886;2023-01-01T03:37:13;11.10;99.90
60701;DHT22;46541;49.894;10.886;2023-01-01T03:39:45;11.00;99.90
60701;DHT22;46541;49.894;10.886;2023-01-01T03:44:57;10.90;99.90
60701;DHT22;46541;49.894;10.886;2023-01-01T03:47:28;11.00;99.90
60701;DHT22;46541;49.894;10.886;2023-01-01T03:49:56;10.90;99.90
60701;DHT22;46541;49.894;10.886;2023-01-01T03:55:37;10.90;99.90
60701;DHT22;46541;49.894;10.886;2023-01-01T03:58:12;10.80;99.90
60701;DHT22;46541;49.894;10.886;2023-01-01T04:00:56;10.80;99.90
60701;DHT22;46541;49.894;10.886;2023-01-01T04:03:28;10.80;99.90
60701;DHT22;46541;49.894;10.886;2023-01-01T04:05:56;10.80;99.90
60701;DHT22;46541;49.894;10.886;2023-01-01T04:08:23;10.70;99.90
60701;DHT22;46541;49.894;10.886;2023-01-01T04:10:56;10.70;99.90
60701;DHT22;46541;49.894;10.886;2023-01-01T04:13:24;10.70;99.90
60701;DHT22;46541;49.894;10.886;2023-01-01T04:15:51;10.70;99.90
60701;DHT22;46541;49.894;10.886;2023-01-01T04:18:18;10.70;99.90
60701;DHT22;46541;49.894;10.886;2023-01-01T04:20:44;10.60;99.90
60701;DHT22;46541;49.894;10.886;2023-01-01T04:23:11;10.70;99.90
60701;DHT22;46541;49.894;10.886;2023-01-01T04:25:38;10.60;99.90
60701;DHT22;46541;49.894;10.886;2023-01-01T04:28:04;10.70;99.90
60701;DHT22;46541;49.894;10.886;2023-01-01T04:30:31;10.70;99.90
60701;DHT22;46541;49.894;10.886;2023-01-01T04:33:00;10.60;99.90
60701;DHT22;46541;49.894;10.886;2023-01-01T04:35:27;10.60;99.90
60701;DHT22;46541;49.894;10.886;2023-01-01T04:37:54;10.60;99.90
60701;DHT22;46541;49.894;10.886;2023-01-01T04:40:21;10.60;99.90
60701;DHT22;46541;49.894;10.886;2023-01-01T04:42:47;10.60;99.90
60701;DHT22;46541;49.894;10.886;2023-01-01T04:45:14;10.60;99.90
60701;DHT22;46541;49.894;10.886;2023-01-01T04:47:41;10.50;99.90
60701;DHT22;46541;49.894;10.886;2023-01-01T04:50:09;10.50;99.90
60701;DHT22;46541;49.894;10.886;2023-01-01T04:52:36;10.50;99.90
60701;DHT22;46541;49.894;10.886;2023-01-01T04:55:03;10.50;99.90
60701;DHT22;46541;49.894;10.886;2023-01-01T04:57:30;10.40;99.90
60701;DHT22;46541;49.894;10.886;2023-01-01T04:59:57;10.40;99.90
60701;DHT22;46541;49.894;10.886;2023-01-01T05:02:24;10.30;99.90
60701;DHT22;46541;49.894;10.886;2023-01-01T05:04:52;10.30;99.90
60701;DHT22;46541;49.894;10.886;2023-01-01T05:07:18;10.30;99.90
60701;DHT22;46541;49.894;10.886;2023-01-01T05:09:45;10.20;99.90
60701;DHT22;46541;49.894;10.886;2023-01-01T05:12:12;10.20;99.90
60701;DHT22;46541;49.894;10.886;2023-01-01T05:14:38;10.20;99.90
60701;DHT22;46541;49.894;10.886;2023-01-01T05:17:05;10.20;99.90
60701;DHT22;46541;49.894;10.886;2023-01-01T05:19:32;10.10;99.90
60701;DHT22;46541;49.894;10.886;2023-01-01T05:21:59;10.10;99.90
60701;DHT22;46541;49.894;10.886;2023-01-01T05:24:34;10.00;99.90
60701;DHT22;46541;49.894;10.886;2023-01-01T05:27:02;10.00;99.90
60701;DHT22;46541;49.894;10.886;2023-01-01T05:29:29;10.00;99.90
60701;DHT22;46541;49.894;10.886;2023-01-01T05:31:56;10.00;99.90
60701;DHT22;46541;49.894;10.886;2023-01-01T05:34:22;10.00;99.90
60701;DHT22;46541;49.894;10.886;2023-01-01T05:36:50;10.00;99.90
60701;DHT22;46541;49.894;10.886;2023-01-01T05:39:17;10.00;99.90
60701;DHT22;46541;49.894;10.886;2023-01-01T05:41:44;10.00;99.90
60701;DHT22;46541;49.894;10.886;2023-01-01T05:44:11;10.00;99.90
60701;DHT22;46541;49.894;10.886;2023-01-01T05:46:38;9.90;99.90
60701;DHT22;46541;49.894;10.886;2023-01-01T05:49:04;10.00;99.90
60701;DHT22;46541;49.894;10.886;2023-01-01T05:51:31;10.00;99.90
60701;DHT22;46541;49.894;10.886;2023-01-01T05:54:00;10.00;99.90
60701;DHT22;46541;49.894;10.886;2023-01-01T05:56:27;10.00;99.90
60701;DHT22;46541;49.894;10.886;2023-01-01T05:58:54;10.00;99.90
60701;DHT22;46541;49.894;10.886;2023-01-01T06:01:23;10.10;99.90
60701;DHT22;46541;49.894;10.886;2023-01-01T06:03:52;10.00;99.90
60701;DHT22;46541;49.894;10.886;2023-01-01T06:06:25;10.10;99.90
60701;DHT22;46541;49.894;10.886;2023-01-01T06:08:56;10.00;99.90
60701;DHT22;46541;49.894;10.886;2023-01-01T06:11:23;10.00;99.90
60701;DHT22;46541;49.894;10.886;2023-01-01T06:13:55;10.00;99.90
60701;DHT22;46541;49.894;10.886;2023-01-01T06:16:24;10.00;99.90
60701;DHT22;46541;49.894;10.886;2023-01-01T06:18:51;9.90;99.90
60701;DHT22;46541;49.894;10.886;2023-01-01T06:21:21;10.00;99.90
60701;DHT22;46541;49.894;10.886;2023-01-01T06:23:48;10.00;99.90
60701;DHT22;46541;49.894;10.886;2023-01-01T06:26:18;10.00;99.90
60701;DHT22;46541;49.894;10.886;2023-01-01T06:28:45;9.90;99.90
60701;DHT22;46541;49.894;10.886;2023-01-01T06:31:14;10.00;99.90
60701;DHT22;46541;49.894;10.886;2023-01-01T06:33:42;10.00;99.90
60701;DHT22;46541;49.894;10.886;2023-01-01T06:36:11;10.00;99.90
60701;DHT22;46541;49.894;10.886;2023-01-01T06:38:39;10.00;99.90
60701;DHT22;46541;49.894;10.886;2023-01-01T06:41:15;10.10;99.90
60701;DHT22;46541;49.894;10.886;2023-01-01T06:43:42;10.00;99.90
60701;DHT22;46541;49.894;10.886;2023-01-01T06:48:51;10.00;99.90
60701;DHT22;46541;49.894;10.886;2023-01-01T06:51:23;9.90;99.90
60701;DHT22;46541;49.894;10.886;2023-01-01T06:53:51;10.00;99.90
60701;DHT22;46541;49.894;10.886;2023-01-01T06:56:18;10.00;99.90
60701;DHT22;46541;49.894;10.886;2023-01-01T06:58:45;10.00;99.90
60701;DHT22;46541;49.894;10.886;2023-01-01T07:01:18;10.00;99.90
60701;DHT22;46541;49.894;10.886;2023-01-01T07:03:50;10.00;99.90
60701;DHT22;46541;49.894;10.886;2023-01-01T07:06:18;10.00;99.90
60701;DHT22;46541;49.894;10.886;2023-01-01T07:08:44;10.00;99.90
60701;DHT22;46541;49.894;10.886;2023-01-01T07:11:11;10.00;99.90
60701;DHT22;46541;49.894;10.886;2023-01-01T07:13:38;10.00;99.90
60701;DHT22;46541;49.894;10.886;2023-01-01T07:16:05;10.00;99.90
60701;DHT22;46541;49.894;10.886;2023-01-01T07:18:38;10.00;99.90
60701;DHT22;46541;49.894;10.886;2023-01-01T07:24:01;10.00;99.90
60701;DHT22;46541;49.894;10.886;2023-01-01T07:26:29;10.00;99.90
60701;DHT22;46541;49.894;10.886;2023-01-01T07:28:57;10.00;99.90
60701;DHT22;46541;49.894;10.886;2023-01-01T07:31:37;10.00;99.90
60701;DHT22;46541;49.894;10.886;2023-01-01T07:34:05;10.00;99.90
60701;DHT22;46541;49.894;10.886;2023-01-01T07:36:33;10.00;99.90
60701;DHT22;46541;49.894;10.886;2023-01-01T07:39:00;10.00;99.90
60701;DHT22;46541;49.894;10.886;2023-01-01T07:41:26;10.00;99.90
60701;DHT22;46541;49.894;10.886;2023-01-01T07:43:53;9.90;99.90
60701;DHT22;46541;49.894;10.886;2023-01-01T07:46:20;10.00;99.90
60701;DHT22;46541;49.894;10.886;2023-01-01T07:48:47;10.00;99.90
60701;DHT22;46541;49.894;10.886;2023-01-01T07:51:14;10.00;99.90
60701;DHT22;46541;49.894;10.886;2023-01-01T07:53:41;10.00;99.90
60701;DHT22;46541;49.894;10.886;2023-01-01T07:56:09;10.00;99.90
60701;DHT22;46541;49.894;10.886;2023-01-01T07:58:42;10.00;99.90
60701;DHT22;46541;49.894;10.886;2023-01-01T08:01:10;10.00;99.90
60701;DHT22;46541;49.894;10.886;2023-01-01T08:03:37;10.00;99.90
60701;DHT22;46541;49.894;10.886;2023-01-01T08:06:07;10.00;99.90
60701;DHT22;46541;49.894;10.886;2023-01-01T08:08:34;10.00;99.90
60701;DHT22;46541;49.894;10.886;2023-01-01T08:11:01;10.00;99.90
60701;DHT22;46541;49.894;10.886;2023-01-01T08:13:29;10.00;99.90
60701;DHT22;46541;49.894;10.886;2023-01-01T08:15:57;10.00;99.90
60701;DHT22;46541;49.894;10.886;2023-01-01T08:18:24;10.00;99.90
60701;DHT22;46541;49.894;10.886;2023-01-01T08:20:51;10.10;99.90
60701;DHT22;46541;49.894;10.886;2023-01-01T08:23:18;10.10;99.90
60701;DHT22;46541;49.894;10.886;2023-01-01T08:25:44;10.10;99.90
60701;DHT22;46541;49.894;10.886;2023-01-01T08:28:11;10.10;99.90
60701;DHT22;46541;49.894;10.886;2023-01-01T08:30:38;10.20;99.90
60701;DHT22;46541;49.894;10.886;2023-01-01T08:33:05;10.20;99.90
60701;DHT22;46541;49.894;10.886;2023-01-01T08:35:40;10.30;99.90
60701;DHT22;46541;49.894;10.886;2023-01-01T08:38:10;10.30;99.90
60701;DHT22;46541;49.894;10.886;2023-01-01T08:40:38;10.30;99.90
60701;DHT22;46541;49.894;10.886;2023-01-01T08:43:05;10.30;99.90
60701;DHT22;46541;49.894;10.886;2023-01-01T08:45:32;10.30;99.90
60701;DHT22;46541;49.894;10.886;2023-01-01T08:47:58;10.30;99.90
60701;DHT22;46541;49.894;10.886;2023-01-01T08:50:26;10.40;99.90
60701;DHT22;46541;49.894;10.886;2023-01-01T08:52:52;10.40;99.90
60701;DHT22;46541;49.894;10.886;2023-01-01T08:55:19;10.40;99.90
60701;DHT22;46541;49.894;10.886;2023-01-01T08:57:46;10.50;99.90
60701;DHT22;46541;49.894;10.886;2023-01-01T09:00:13;10.50;99.90
60701;DHT22;46541;49.894;10.886;2023-01-01T09:02:40;10.50;99.90
60701;DHT22;46541;49.894;10.886;2023-01-01T09:05:08;10.60;99.90
60701;DHT22;46541;49.894;10.886;2023-01-01T09:07:35;10.60;99.90
60701;DHT22;46541;49.894;10.886;2023-01-01T09:10:01;10.70;99.90
60701;DHT22;46541;49.894;10.886;2023-01-01T09:12:28;10.70;99.90
60701;DHT22;46541;49.894;10.886;2023-01-01T09:14:55;10.80;99.90
60701;DHT22;46541;49.894;10.886;2023-01-01T09:17:22;10.80;99.90
60701;DHT22;46541;49.894;10.886;2023-01-01T09:19:49;10.90;99.90
60701;DHT22;46541;49.894;10.886;2023-01-01T09:22:15;11.00;99.90
60701;DHT22;46541;49.894;10.886;2023-01-01T09:24:42;11.10;99.90
60701;DHT22;46541;49.894;10.886;2023-01-01T09:27:09;11.10;99.90
60701;DHT22;46541;49.894;10.886;2023-01-01T09:29:36;11.20;99.90
60701;DHT22;46541;49.894;10.886;2023-01-01T09:32:03;11.30;99.90
60701;DHT22;46541;49.894;10.886;2023-01-01T09:34:29;11.40;99.90
60701;DHT22;46541;49.894;10.886;2023-01-01T09:36:56;11.50;99.90
60701;DHT22;46541;49.894;10.886;2023-01-01T09:39:23;11.50;99.90
60701;DHT22;46541;49.894;10.886;2023-01-01T09:49:51;11.80;99.90
60701;DHT22;46541;49.894;10.886;2023-01-01T09:52:21;11.90;99.90
60701;DHT22;46541;49.894;10.886;2023-01-01T09:55:08;11.90;99.90
60701;DHT22;46541;49.894;10.886;2023-01-01T09:57:37;11.90;99.90
60701;DHT22;46541;49.894;10.886;2023-01-01T10:00:14;12.00;99.90
60701;DHT22;46541;49.894;10.886;2023-01-01T10:10:51;12.20;99.90
60701;DHT22;46541;49.894;10.886;2023-01-01T10:13:37;12.20;99.90
60701;DHT22;46541;49.894;10.886;2023-01-01T10:18:52;12.30;99.90
60701;DHT22;46541;49.894;10.886;2023-01-01T10:21:25;12.40;99.90
60701;DHT22;46541;49.894;10.886;2023-01-01T10:24:00;12.50;99.90
60701;DHT22;46541;49.894;10.886;2023-01-01T10:26:29;12.50;99.90
60701;DHT22;46541;49.894;10.886;2023-01-01T10:29:02;12.60;99.90
60701;DHT22;46541;49.894;10.886;2023-01-01T10:31:33;12.70;99.90
60701;DHT22;46541;49.894;10.886;2023-01-01T10:34:24;12.70;99.90
60701;DHT22;46541;49.894;10.886;2023-01-01T10:36:53;12.80;99.90
60701;DHT22;46541;49.894;10.886;2023-01-01T10:39:21;12.80;99.90
60701;DHT22;46541;49.894;10.886;2023-01-01T10:41:49;12.90;99.90
60701;DHT22;46541;49.894;10.886;2023-01-01T10:44:27;13.00;99.90
60701;DHT22;46541;49.894;10.886;2023-01-01T10:47:00;13.00;99.90
60701;DHT22;46541;49.894;10.886;2023-01-01T10:49:30;13.10;99.90
60701;DHT22;46541;49.894;10.886;2023-01-01T10:51:56;13.10;99.90
60701;DHT22;46541;49.894;10.886;2023-01-01T10:54:38;13.20;99.90
60701;DHT22;46541;49.894;10.886;2023-01-01T10:57:19;13.30;99.90
60701;DHT22;46541;49.894;10.886;2023-01-01T10:59:47;13.40;99.90
60701;DHT22;46541;49.894;10.886;2023-01-01T11:04:48;13.50;99.90
60701;DHT22;46541;49.894;10.886;2023-01-01T11:07:30;13.50;99.90
60701;DHT22;46541;49.894;10.886;2023-01-01T11:10:04;13.60;99.90
60701;DHT22;46541;49.894;10.886;2023-01-01T11:12:35;13.60;99.90
60701;DHT22;46541;49.894;10.886;2023-01-01T11:18:14;13.70;99.90
60701;DHT22;46541;49.894;10.886;2023-01-01T11:20:41;13.80;99.90
60701;DHT22;46541;49.894;10.886;2023-01-01T11:28:34;13.90;99.90
60701;DHT22;46541;49.894;10.886;2023-01-01T11:31:13;13.90;99.90
60701;DHT22;46541;49.894;10.886;2023-01-01T11:33:45;14.00;99.90
60701;DHT22;46541;49.894;10.886;2023-01-01T11:36:24;14.00;99.90
60701;DHT22;46541;49.894;10.886;2023-01-01T11:41:47;14.10;99.90
60701;DHT22;46541;49.894;10.886;2023-01-01T11:44:43;14.10;99.90
60701;DHT22;46541;49.894;10.886;2023-01-01T11:47:30;14.20;99.90
60701;DHT22;46541;49.894;10.886;2023-01-01T11:52:40;14.20;99.90
60701;DHT22;46541;49.894;10.886;2023-01-01T11:55:17;14.20;99.90
60701;DHT22;46541;49.894;10.886;2023-01-01T11:57:56;14.10;99.90
60701;DHT22;46541;49.894;10.886;2023-01-01T12:00:27;14.10;99.90
60701;DHT22;46541;49.894;10.886;2023-01-01T12:12:27;14.20;99.90
60701;DHT22;46541;49.894;10.886;2023-01-01T12:15:16;14.20;99.90
60701;DHT22;46541;49.894;10.886;2023-01-01T12:17:49;14.20;99.90
60701;DHT22;46541;49.894;10.886;2023-01-01T12:22:47;14.30;99.90
60701;DHT22;46541;49.894;10.886;2023-01-01T12:25:18;14.30;99.90
60701;DHT22;46541;49.894;10.886;2023-01-01T12:41:56;14.50;99.90
60701;DHT22;46541;49.894;10.886;2023-01-01T12:57:48;14.50;99.90
60701;DHT22;46541;49.894;10.886;2023-01-01T13:00:18;14.60;99.90
60701;DHT22;46541;49.894;10.886;2023-01-01T13:05:26;14.60;99.90
60701;DHT22;46541;49.894;10.886;2023-01-01T13:07:58;14.50;99.90
60701;DHT22;46541;49.894;10.886;2023-01-01T13:10:44;14.50;99.90
60701;DHT22;46541;49.894;10.886;2023-01-01T13:13:12;14.50;99.90
60701;DHT22;46541;49.894;10.886;2023-01-01T13:20:44;14.40;99.90
60701;DHT22;46541;49.894;10.886;2023-01-01T13:34:32;14.40;99.90
60701;DHT22;46541;49.894;10.886;2023-01-01T13:39:59;14.40;99.90
60701;DHT22;46541;49.894;10.886;2023-01-01T13:45:44;14.30;99.90
60701;DHT22;46541;49.894;10.886;2023-01-01T13:49:13;14.30;99.90
60701;DHT22;46541;49.894;10.886;2023-01-01T14:00:29;14.30;99.90
60701;DHT22;46541;49.894;10.886;2023-01-01T14:03:00;14.30;99.90
60701;DHT22;46541;49.894;10.886;2023-01-01T14:07:55;14.20;99.90
60701;DHT22;46541;49.894;10.886;2023-01-01T14:12:56;14.20;99.90
60701;DHT22;46541;49.894;10.886;2023-01-01T14:15:37;14.20;99.90
60701;DHT22;46541;49.894;10.886;2023-01-01T14:18:14;14.20;99.90
60701;DHT22;46541;49.894;10.886;2023-01-01T14:23:13;14.20;99.90
60701;DHT22;46541;49.894;10.886;2023-01-01T14:25:42;14.20;99.90
60701;DHT22;46541;49.894;10.886;2023-01-01T14:28:28;14.10;99.90
60701;DHT22;46541;49.894;10.886;2023-01-01T14:30:57;14.10;99.90
60701;DHT22;46541;49.894;10.886;2023-01-01T14:33:27;14.10;99.90
60701;DHT22;46541;49.894;10.886;2023-01-01T14:35:57;14.10;99.90
60701;DHT22;46541;49.894;10.886;2023-01-01T14:38:29;14.10;99.90
60701;DHT22;46541;49.894;10.886;2023-01-01T14:43:44;14.00;99.90
60701;DHT22;46541;49.894;10.886;2023-01-01T14:46:17;14.00;99.90
60701;DHT22;46541;49.894;10.886;2023-01-01T14:48:49;13.90;99.90
60701;DHT22;46541;49.894;10.886;2023-01-01T14:51:26;13.90;99.90
60701;DHT22;46541;49.894;10.886;2023-01-01T14:53:57;13.90;99.90
60701;DHT22;46541;49.894;10.886;2023-01-01T14:56:28;13.90;99.90
60701;DHT22;46541;49.894;10.886;2023-01-01T14:59:31;13.80;99.90
60701;DHT22;46541;49.894;10.886;2023-01-01T15:02:11;13.80;99.90
60701;DHT22;46541;49.894;10.886;2023-01-01T15:04:40;13.80;99.90
60701;DHT22;46541;49.894;10.886;2023-01-01T15:07:28;13.80;99.90
60701;DHT22;46541;49.894;10.886;2023-01-01T15:09:57;13.80;99.90
60701;DHT22;46541;49.894;10.886;2023-01-01T15:12:31;13.80;99.90
60701;DHT22;46541;49.894;10.886;2023-01-01T15:14:59;13.70;99.90
60701;DHT22;46541;49.894;10.886;2023-01-01T15:17:27;13.70;99.90
60701;DHT22;46541;49.894;10.886;2023-01-01T15:20:19;13.70;99.90
60701;DHT22;46541;49.894;10.886;2023-01-01T15:22:47;13.60;99.90
60701;DHT22;46541;49.894;10.886;2023-01-01T15:25:16;13.50;99.90
60701;DHT22;46541;49.894;10.886;2023-01-01T15:27:48;13.50;99.90
60701;DHT22;46541;49.894;10.886;2023-01-01T15:30:24;13.50;99.90
60701;DHT22;46541;49.894;10.886;2023-01-01T15:32:52;13.50;99.90
60701;DHT22;46541;49.894;10.886;2023-01-01T15:35:22;13.40;99.90
60701;DHT22;46541;49.894;10.886;2023-01-01T15:38:14;13.40;99.90
60701;DHT22;46541;49.894;10.886;2023-01-01T15:40:43;13.30;99.90
60701;DHT22;46541;49.894;10.886;2023-01-01T15:43:26;13.30;99.90
60701;DHT22;46541;49.894;10.886;2023-01-01T15:45:59;13.20;99.90
60701;DHT22;46541;49.894;10.886;2023-01-01T15:48:46;13.20;99.90
60701;DHT22;46541;49.894;10.886;2023-01-01T15:51:23;13.20;99.90
60701;DHT22;46541;49.894;10.886;2023-01-01T15:53:59;13.20;99.90
60701;DHT22;46541;49.894;10.886;2023-01-01T15:56:30;13.20;99.90
60701;DHT22;46541;49.894;10.886;2023-01-01T15:59:04;13.10;99.90
60701;DHT22;46541;49.894;10.886;2023-01-01T16:01:38;13.10;99.90
60701;DHT22;46541;49.894;10.886;2023-01-01T16:04:25;13.10;99.90
60701;DHT22;46541;49.894;10.886;2023-01-01T16:06:56;13.10;99.90
60701;DHT22;46541;49.894;10.886;2023-01-01T16:09:23;13.10;99.90
60701;DHT22;46541;49.894;10.886;2023-01-01T16:11:54;13.00;99.90
60701;DHT22;46541;49.894;10.886;2023-01-01T16:14:22;13.10;99.90
60701;DHT22;46541;49.894;10.886;2023-01-01T16:16:55;13.10;99.90
60701;DHT22;46541;49.894;10.886;2023-01-01T16:19:28;13.00;99.90
60701;DHT22;46541;49.894;10.886;2023-01-01T16:21:55;13.00;99.90
60701;DHT22;46541;49.894;10.886;2023-01-01T16:24:22;13.00;99.90
60701;DHT22;46541;49.894;10.886;2023-01-01T16:26:50;13.00;99.90
60701;DHT22;46541;49.894;10.886;2023-01-01T16:29:16;13.00;99.90
60701;DHT22;46541;49.894;10.886;2023-01-01T16:31:44;13.00;99.90
60701;DHT22;46541;49.894;10.886;2023-01-01T16:34:13;12.90;99.90
60701;DHT22;46541;49.894;10.886;2023-01-01T16:36:41;12.90;99.90
60701;DHT22;46541;49.894;10.886;2023-01-01T16:39:08;13.00;99.90
60701;DHT22;46541;49.894;10.886;2023-01-01T16:41:35;13.00;99.90
60701;DHT22;46541;49.894;10.886;2023-01-01T16:44:02;12.90;99.90
60701;DHT22;46541;49.894;10.886;2023-01-01T16:46:30;12.90;99.90
60701;DHT22;46541;49.894;10.886;2023-01-01T16:48:58;12.90;99.90
60701;DHT22;46541;49.894;10.886;2023-01-01T16:51:29;12.90;99.90
60701;DHT22;46541;49.894;10.886;2023-01-01T16:53:57;12.90;99.90
60701;DHT22;46541;49.894;10.886;2023-01-01T16:56:29;12.80;99.90
60701;DHT22;46541;49.894;10.886;2023-01-01T16:58:56;12.80;99.90
60701;DHT22;46541;49.894;10.886;2023-01-01T17:01:29;12.80;99.90
60701;DHT22;46541;49.894;10.886;2023-01-01T17:03:56;12.80;99.90
60701;DHT22;46541;49.894;10.886;2023-01-01T17:06:23;12.80;99.90
60701;DHT22;46541;49.894;10.886;2023-01-01T17:08:49;12.80;99.90
60701;DHT22;46541;49.894;10.886;2023-01-01T17:11:16;12.80;99.90
60701;DHT22;46541;49.894;10.886;2023-01-01T17:13:45;12.80;99.90
60701;DHT22;46541;49.894;10.886;2023-01-01T17:16:13;12.80;99.90
60701;DHT22;46541;49.894;10.886;2023-01-01T17:18:51;12.80;99.90
60701;DHT22;46541;49.894;10.886;2023-01-01T17:21:38;12.80;99.90
60701;DHT22;46541;49.894;10.886;2023-01-01T17:24:05;12.70;99.90
60701;DHT22;46541;49.894;10.886;2023-01-01T17:26:32;12.80;99.90
60701;DHT22;46541;49.894;10.886;2023-01-01T17:28:59;12.80;99.90
60701;DHT22;46541;49.894;10.886;2023-01-01T17:31:27;12.70;99.90
60701;DHT22;46541;49.894;10.886;2023-01-01T17:33:54;12.70;99.90
60701;DHT22;46541;49.894;10.886;2023-01-01T17:36:21;12.70;99.90
60701;DHT22;46541;49.894;10.886;2023-01-01T17:38:48;12.70;99.90
60701;DHT22;46541;49.894;10.886;2023-01-01T17:41:16;12.70;99.90
60701;DHT22;46541;49.894;10.886;2023-01-01T17:43:45;12.60;99.90
60701;DHT22;46541;49.894;10.886;2023-01-01T17:48:46;12.60;99.90
60701;DHT22;46541;49.894;10.886;2023-01-01T17:51:14;12.60;99.90
60701;DHT22;46541;49.894;10.886;2023-01-01T17:53:41;12.60;99.90
60701;DHT22;46541;49.894;10.886;2023-01-01T17:56:10;12.60;99.90
60701;DHT22;46541;49.894;10.886;2023-01-01T17:58:39;12.60;99.90
60701;DHT22;46541;49.894;10.886;2023-01-01T18:03:45;12.70;99.90
60701;DHT22;46541;49.894;10.886;2023-01-01T18:06:11;12.70;99.90
60701;DHT22;46541;49.894;10.886;2023-01-01T18:08:38;12.70;99.90
60701;DHT22;46541;49.894;10.886;2023-01-01T18:11:05;12.60;99.90
60701;DHT22;46541;49.894;10.886;2023-01-01T18:13:32;12.60;99.90
60701;DHT22;46541;49.894;10.886;2023-01-01T18:16:08;12.60;99.90
60701;DHT22;46541;49.894;10.886;2023-01-01T18:18:38;12.60;99.90
60701;DHT22;46541;49.894;10.886;2023-01-01T18:21:10;12.60;99.90
60701;DHT22;46541;49.894;10.886;2023-01-01T18:23:40;12.50;99.90
60701;DHT22;46541;49.894;10.886;2023-01-01T18:26:09;12.50;99.90
60701;DHT22;46541;49.894;10.886;2023-01-01T18:28:36;12.50;99.90
60701;DHT22;46541;49.894;10.886;2023-01-01T18:31:05;12.40;99.90